sensor_id;sensor_type;location;lat;lon;timestamp;temperature;humidity
31263;DHT22;17892;52.080;9.006;2023-06-10T00:01:37;20.30;78.00
31263;DHT22;17892;52.080;9.006;2023-06-10T00:04:03;20.30;77.70
31263;DHT22;17892;52.080;9.006;2023-06-10T00:06:30;20.20;77.60
31263;DHT22;17892;52.080;9.006;2023-06-10T00:09:04;20.20;77.60
31263;DHT22;17892;52.080;9.006;2023-06-10T00:11:31;20.20;77.60
31263;DHT22;17892;52.080;9.006;2023-06-10T00:13:58;20.20;77.50
31263;DHT22;17892;52.080;9.006;2023-06-10T00:16:24;20.10;77.40
31263;DHT22;17892;52.080;9.006;2023-06-10T00:18:50;20.10;77.30
31263;DHT22;17892;52.080;9.006;2023-06-10T00:21:21;20.00;77.20
31263;DHT22;17892;52.080;9.006;2023-06-10T00:23:47;19.90;77.10
31263;DHT22;17892;52.080;9.006;2023-06-10T00:26:13;19.90;77.20
31263;DHT22;17892;52.080;9.006;2023-06-10T00:28:39;19.80;76.90
31263;DHT22;17892;52.080;9.006;2023-06-10T00:31:05;19.80;77.10
31263;DHT22;17892;52.080;9.006;2023-06-10T00:33:31;19.70;77.10
31263;DHT22;17892;52.080;9.006;2023-06-10T00:35:56;19.70;76.90
31263;DHT22;17892;52.080;9.006;2023-06-10T00:38:22;19.60;76.90
31263;DHT22;17892;52.080;9.006;2023-06-10T00:40:48;19.60;76.80
31263;DHT22;17892;52.080;9.006;2023-06-10T00:43:14;19.60;76.80
31263;DHT22;17892;52.080;9.006;2023-06-10T00:45:40;19.50;76.70
31263;DHT22;17892;52.080;9.006;2023-06-10T00:48:06;19.50;76.80
31263;DHT22;17892;52.080;9.006;2023-06-10T00:50:32;19.50;76.90
31263;DHT22;17892;52.080;9.006;2023-06-10T00:52:58;19.40;76.70
31263;DHT22;17892;52.080;9.006;2023-06-10T00:55:24;19.40;76.70
31263;DHT22;17892;52.080;9.006;2023-06-10T00:57:52;19.30;76.50
31263;DHT22;17892;52.080;9.006;2023-06-10T01:00:19;19.30;76.50
31263;DHT22;17892;52.080;9.006;2023-06-10T01:02:45;19.30;76.50
31263;DHT22;17892;52.080;9.006;2023-06-10T01:05:11;19.30;76.50
31263;DHT22;17892;52.080;9.006;2023-06-10T01:07:55;19.20;76.30
31263;DHT22;17892;52.080;9.006;2023-06-10T01:13:28;19.20;76.10
31263;DHT22;17892;52.080;9.006;2023-06-10T01:15:55;19.00;75.60
31263;DHT22;17892;52.080;9.006;2023-06-10T01:18:21;19.00;75.50
31263;DHT22;17892;52.080;9.006;2023-06-10T01:20:47;18.90;75.50
31263;DHT22;17892;52.080;9.006;2023-06-10T01:23:14;18.90;75.50
31263;DHT22;17892;52.080;9.006;2023-06-10T01:25:47;18.80;75.50
31263;DHT22;17892;52.080;9.006;2023-06-10T01:28:27;18.70;75.70
31263;DHT22;17892;52.080;9.006;2023-06-10T01:31:18;18.50;76.20
31263;DHT22;17892;52.080;9.006;2023-06-10T01:33:52;18.40;76.80
31263;DHT22;17892;52.080;9.006;2023-06-10T01:36:19;18.20;75.30
31263;DHT22;17892;52.080;9.006;2023-06-10T01:38:47;18.00;75.40
31263;DHT22;17892;52.080;9.006;2023-06-10T01:41:18;17.90;75.70
31263;DHT22;17892;52.080;9.006;2023-06-10T01:43:47;17.70;76.70
31263;DHT22;17892;52.080;9.006;2023-06-10T01:46:14;17.50;75.80
31263;DHT22;17892;52.080;9.006;2023-06-10T01:48:41;17.40;76.20
31263;DHT22;17892;52.080;9.006;2023-06-10T01:51:07;17.20;76.50
31263;DHT22;17892;52.080;9.006;2023-06-10T01:53:33;17.10;76.50
31263;DHT22;17892;52.080;9.006;2023-06-10T01:55:58;16.90;76.70
31263;DHT22;17892;52.080;9.006;2023-06-10T01:58:25;16.80;77.60
31263;DHT22;17892;52.080;9.006;2023-06-10T02:00:51;16.70;77.00
31263;DHT22;17892;52.080;9.006;2023-06-10T02:03:16;16.60;77.20
31263;DHT22;17892;52.080;9.006;2023-06-10T02:05:43;16.40;77.70
31263;DHT22;17892;52.080;9.006;2023-06-10T02:08:09;16.30;77.70
31263;DHT22;17892;52.080;9.006;2023-06-10T02:10:35;16.20;78.30
31263;DHT22;17892;52.080;9.006;2023-06-10T02:13:00;16.10;78.50
31263;DHT22;17892;52.080;9.006;2023-06-10T02:15:26;16.00;78.50
31263;DHT22;17892;52.080;9.006;2023-06-10T02:17:52;15.80;78.50
31263;DHT22;17892;52.080;9.006;2023-06-10T02:20:18;15.70;78.90
31263;DHT22;17892;52.080;9.006;2023-06-10T02:22:44;15.70;79.00
31263;DHT22;17892;52.080;9.006;2023-06-10T02:25:10;15.50;79.20
31263;DHT22;17892;52.080;9.006;2023-06-10T02:27:36;15.40;79.50
31263;DHT22;17892;52.080;9.006;2023-06-10T02:30:01;15.30;79.80
31263;DHT22;17892;52.080;9.006;2023-06-10T02:32:27;15.20;79.90
31263;DHT22;17892;52.080;9.006;2023-06-10T02:34:53;15.20;80.30
31263;DHT22;17892;52.080;9.006;2023-06-10T02:37:19;15.00;80.50
31263;DHT22;17892;52.080;9.006;2023-06-10T02:39:46;15.00;80.90
31263;DHT22;17892;52.080;9.006;2023-06-10T02:42:12;14.90;81.40
31263;DHT22;17892;52.080;9.006;2023-06-10T02:44:38;14.80;81.70
31263;DHT22;17892;52.080;9.006;2023-06-10T02:47:04;14.80;82.00
31263;DHT22;17892;52.080;9.006;2023-06-10T02:49:30;14.70;82.20
31263;DHT22;17892;52.080;9.006;2023-06-10T02:51:56;14.70;82.40
31263;DHT22;17892;52.080;9.006;2023-06-10T02:54:25;14.60;83.00
31263;DHT22;17892;52.080;9.006;2023-06-10T02:56:51;14.60;83.50
31263;DHT22;17892;52.080;9.006;2023-06-10T02:59:17;14.60;85.10
31263;DHT22;17892;52.080;9.006;2023-06-10T03:01:44;14.50;86.00
31263;DHT22;17892;52.080;9.006;2023-06-10T03:04:11;14.50;85.60
31263;DHT22;17892;52.080;9.006;2023-06-10T03:06:39;14.50;85.60
31263;DHT22;17892;52.080;9.006;2023-06-10T03:09:06;14.50;85.60
31263;DHT22;17892;52.080;9.006;2023-06-10T03:11:35;14.50;85.70
31263;DHT22;17892;52.080;9.006;2023-06-10T03:14:01;14.50;87.10
31263;DHT22;17892;52.080;9.006;2023-06-10T03:16:27;14.50;86.60
31263;DHT22;17892;52.080;9.006;2023-06-10T03:18:53;14.60;87.10
31263;DHT22;17892;52.080;9.006;2023-06-10T03:21:19;14.60;87.80
31263;DHT22;17892;52.080;9.006;2023-06-10T03:23:45;14.60;87.60
31263;DHT22;17892;52.080;9.006;2023-06-10T03:26:11;14.70;87.70
31263;DHT22;17892;52.080;9.006;2023-06-10T03:28:38;14.70;88.10
31263;DHT22;17892;52.080;9.006;2023-06-10T03:31:03;14.80;87.70
31263;DHT22;17892;52.080;9.006;2023-06-10T03:33:29;14.90;87.90
31263;DHT22;17892;52.080;9.006;2023-06-10T03:35:55;14.90;87.70
31263;DHT22;17892;52.080;9.006;2023-06-10T03:38:21;15.00;88.00
31263;DHT22;17892;52.080;9.006;2023-06-10T03:40:47;15.00;88.30
31263;DHT22;17892;52.080;9.006;2023-06-10T03:43:12;15.10;88.40
31263;DHT22;17892;52.080;9.006;2023-06-10T03:45:38;15.10;87.90
31263;DHT22;17892;52.080;9.006;2023-06-10T03:48:04;15.10;88.10
31263;DHT22;17892;52.080;9.006;2023-06-10T03:50:31;15.20;88.40
31263;DHT22;17892;52.080;9.006;2023-06-10T03:52:57;15.20;88.10
31263;DHT22;17892;52.080;9.006;2023-06-10T03:55:23;15.20;88.60
31263;DHT22;17892;52.080;9.006;2023-06-10T03:57:49;15.20;88.20
31263;DHT22;17892;52.080;9.006;2023-06-10T04:00:16;15.20;88.40
31263;DHT22;17892;52.080;9.006;2023-06-10T04:02:43;15.20;88.80
31263;DHT22;17892;52.080;9.006;2023-06-10T04:05:15;15.30;89.10
31263;DHT22;17892;52.080;9.006;2023-06-10T04:07:42;15.40;89.10
31263;DHT22;17892;52.080;9.006;2023-06-10T04:10:10;15.40;89.50
31263;DHT22;17892;52.080;9.006;2023-06-10T04:12:37;15.50;89.60
31263;DHT22;17892;52.080;9.006;2023-06-10T04:15:04;15.60;89.70
31263;DHT22;17892;52.080;9.006;2023-06-10T04:17:30;15.70;90.00
31263;DHT22;17892;52.080;9.006;2023-06-10T04:19:56;15.80;90.00
31263;DHT22;17892;52.080;9.006;2023-06-10T04:22:23;15.90;90.10
31263;DHT22;17892;52.080;9.006;2023-06-10T04:24:49;16.00;90.30
31263;DHT22;17892;52.080;9.006;2023-06-10T04:27:15;16.10;90.20
31263;DHT22;17892;52.080;9.006;2023-06-10T04:29:41;16.20;90.20
31263;DHT22;17892;52.080;9.006;2023-06-10T04:32:07;16.30;90.30
31263;DHT22;17892;52.080;9.006;2023-06-10T04:34:33;16.40;90.30
31263;DHT22;17892;52.080;9.006;2023-06-10T04:37:00;16.50;90.50
31263;DHT22;17892;52.080;9.006;2023-06-10T04:39:26;16.70;90.40
31263;DHT22;17892;52.080;9.006;2023-06-10T04:41:51;16.70;90.40
31263;DHT22;17892;52.080;9.006;2023-06-10T04:44:17;16.90;90.40
31263;DHT22;17892;52.080;9.006;2023-06-10T04:46:44;17.00;90.40
31263;DHT22;17892;52.080;9.006;2023-06-10T04:49:10;17.10;90.40
31263;DHT22;17892;52.080;9.006;2023-06-10T04:51:39;17.20;90.50
31263;DHT22;17892;52.080;9.006;2023-06-10T04:54:05;17.40;91.00
31263;DHT22;17892;52.080;9.006;2023-06-10T04:56:31;17.60;91.40
31263;DHT22;17892;52.080;9.006;2023-06-10T04:58:57;17.90;91.70
31263;DHT22;17892;52.080;9.006;2023-06-10T05:01:23;18.20;91.90
31263;DHT22;17892;52.080;9.006;2023-06-10T05:03:49;18.60;91.90
31263;DHT22;17892;52.080;9.006;2023-06-10T05:06:14;19.10;91.70
31263;DHT22;17892;52.080;9.006;2023-06-10T05:08:40;19.40;91.30
31263;DHT22;17892;52.080;9.006;2023-06-10T05:11:06;19.80;91.10
31263;DHT22;17892;52.080;9.006;2023-06-10T05:13:32;20.20;90.60
31263;DHT22;17892;52.080;9.006;2023-06-10T05:15:58;20.50;90.30
31263;DHT22;17892;52.080;9.006;2023-06-10T05:18:24;20.80;90.10
31263;DHT22;17892;52.080;9.006;2023-06-10T05:20:50;21.20;90.00
31263;DHT22;17892;52.080;9.006;2023-06-10T05:23:15;21.50;89.70
31263;DHT22;17892;52.080;9.006;2023-06-10T05:25:41;21.80;89.20
31263;DHT22;17892;52.080;9.006;2023-06-10T05:28:08;22.10;88.90
31263;DHT22;17892;52.080;9.006;2023-06-10T05:30:36;22.40;88.00
31263;DHT22;17892;52.080;9.006;2023-06-10T05:33:02;22.60;86.10
31263;DHT22;17892;52.080;9.006;2023-06-10T05:35:28;22.80;85.70
31263;DHT22;17892;52.080;9.006;2023-06-10T05:37:54;23.00;84.40
31263;DHT22;17892;52.080;9.006;2023-06-10T05:40:20;23.10;84.40
31263;DHT22;17892;52.080;9.006;2023-06-10T05:42:46;23.10;83.30
31263;DHT22;17892;52.080;9.006;2023-06-10T05:45:11;23.20;83.30
31263;DHT22;17892;52.080;9.006;2023-06-10T05:47:38;23.20;83.30
31263;DHT22;17892;52.080;9.006;2023-06-10T05:50:04;23.30;83.40
31263;DHT22;17892;52.080;9.006;2023-06-10T05:52:33;23.40;83.30
31263;DHT22;17892;52.080;9.006;2023-06-10T05:54:59;23.60;83.10
31263;DHT22;17892;52.080;9.006;2023-06-10T05:57:25;23.70;82.20
31263;DHT22;17892;52.080;9.006;2023-06-10T05:59:51;23.90;82.00
31263;DHT22;17892;52.080;9.006;2023-06-10T06:02:17;24.00;82.00
31263;DHT22;17892;52.080;9.006;2023-06-10T06:04:43;24.10;81.50
31263;DHT22;17892;52.080;9.006;2023-06-10T06:07:08;24.20;80.60
31263;DHT22;17892;52.080;9.006;2023-06-10T06:09:34;24.20;79.50
31263;DHT22;17892;52.080;9.006;2023-06-10T06:12:00;24.20;79.30
31263;DHT22;17892;52.080;9.006;2023-06-10T06:14:25;24.20;78.90
31263;DHT22;17892;52.080;9.006;2023-06-10T06:16:51;24.20;79.40
31263;DHT22;17892;52.080;9.006;2023-06-10T06:19:17;24.40;79.30
31263;DHT22;17892;52.080;9.006;2023-06-10T06:21:43;24.50;79.50
31263;DHT22;17892;52.080;9.006;2023-06-10T06:24:08;24.60;79.50
31263;DHT22;17892;52.080;9.006;2023-06-10T06:26:34;24.80;79.60
31263;DHT22;17892;52.080;9.006;2023-06-10T06:29:00;25.00;80.10
31263;DHT22;17892;52.080;9.006;2023-06-10T06:31:25;25.20;80.30
31263;DHT22;17892;52.080;9.006;2023-06-10T06:33:51;25.40;79.80
31263;DHT22;17892;52.080;9.006;2023-06-10T06:36:17;25.70;79.70
31263;DHT22;17892;52.080;9.006;2023-06-10T06:38:42;25.90;79.40
31263;DHT22;17892;52.080;9.006;2023-06-10T06:41:08;26.20;78.50
31263;DHT22;17892;52.080;9.006;2023-06-10T06:43:34;26.40;75.30
31263;DHT22;17892;52.080;9.006;2023-06-10T06:45:59;26.60;76.10
31263;DHT22;17892;52.080;9.006;2023-06-10T06:48:25;26.80;75.70
31263;DHT22;17892;52.080;9.006;2023-06-10T06:50:51;27.00;74.40
31263;DHT22;17892;52.080;9.006;2023-06-10T06:53:17;27.20;72.60
31263;DHT22;17892;52.080;9.006;2023-06-10T06:55:43;27.40;73.20
31263;DHT22;17892;52.080;9.006;2023-06-10T06:58:08;27.50;72.70
31263;DHT22;17892;52.080;9.006;2023-06-10T07:00:34;27.70;72.00
31263;DHT22;17892;52.080;9.006;2023-06-10T07:03:00;27.80;71.20
31263;DHT22;17892;52.080;9.006;2023-06-10T07:05:25;27.90;70.80
31263;DHT22;17892;52.080;9.006;2023-06-10T07:07:52;28.00;70.50
31263;DHT22;17892;52.080;9.006;2023-06-10T07:10:24;28.10;69.20
31263;DHT22;17892;52.080;9.006;2023-06-10T07:12:50;28.20;69.20
31263;DHT22;17892;52.080;9.006;2023-06-10T07:15:16;28.30;69.80
31263;DHT22;17892;52.080;9.006;2023-06-10T07:17:42;28.50;68.70
31263;DHT22;17892;52.080;9.006;2023-06-10T07:20:08;28.60;67.20
31263;DHT22;17892;52.080;9.006;2023-06-10T07:22:34;28.70;65.10
31263;DHT22;17892;52.080;9.006;2023-06-10T07:25:00;28.60;64.60
31263;DHT22;17892;52.080;9.006;2023-06-10T07:27:26;28.60;64.10
31263;DHT22;17892;52.080;9.006;2023-06-10T07:29:51;28.60;64.40
31263;DHT22;17892;52.080;9.006;2023-06-10T07:32:17;28.50;65.50
31263;DHT22;17892;52.080;9.006;2023-06-10T07:34:43;28.60;66.00
31263;DHT22;17892;52.080;9.006;2023-06-10T07:37:09;28.60;65.50
31263;DHT22;17892;52.080;9.006;2023-06-10T07:39:34;28.60;65.00
31263;DHT22;17892;52.080;9.006;2023-06-10T07:42:01;28.70;65.60
31263;DHT22;17892;52.080;9.006;2023-06-10T07:44:26;28.70;65.50
31263;DHT22;17892;52.080;9.006;2023-06-10T07:46:52;28.80;65.20
31263;DHT22;17892;52.080;9.006;2023-06-10T07:49:18;28.80;65.60
31263;DHT22;17892;52.080;9.006;2023-06-10T07:51:43;28.90;65.60
31263;DHT22;17892;52.080;9.006;2023-06-10T07:54:09;29.10;65.60
31263;DHT22;17892;52.080;9.006;2023-06-10T07:56:37;29.20;64.50
31263;DHT22;17892;52.080;9.006;2023-06-10T07:59:03;29.20;62.70
31263;DHT22;17892;52.080;9.006;2023-06-10T08:01:29;29.30;63.00
31263;DHT22;17892;52.080;9.006;2023-06-10T08:03:55;29.40;63.50
31263;DHT22;17892;52.080;9.006;2023-06-10T08:06:21;29.40;63.40
31263;DHT22;17892;52.080;9.006;2023-06-10T08:08:47;29.60;63.00
31263;DHT22;17892;52.080;9.006;2023-06-10T08:11:13;29.60;62.00
31263;DHT22;17892;52.080;9.006;2023-06-10T08:13:39;29.70;62.60
31263;DHT22;17892;52.080;9.006;2023-06-10T08:16:05;29.80;63.20
31263;DHT22;17892;52.080;9.006;2023-06-10T08:18:31;29.90;61.60
31263;DHT22;17892;52.080;9.006;2023-06-10T08:20:57;29.90;60.90
31263;DHT22;17892;52.080;9.006;2023-06-10T08:23:23;30.00;60.20
31263;DHT22;17892;52.080;9.006;2023-06-10T08:25:48;29.90;59.40
31263;DHT22;17892;52.080;9.006;2023-06-10T08:28:14;29.80;59.40
31263;DHT22;17892;52.080;9.006;2023-06-10T08:30:40;29.70;59.30
31263;DHT22;17892;52.080;9.006;2023-06-10T08:33:06;29.70;60.40
31263;DHT22;17892;52.080;9.006;2023-06-10T08:35:31;29.60;60.30
31263;DHT22;17892;52.080;9.006;2023-06-10T08:37:57;29.70;60.90
31263;DHT22;17892;52.080;9.006;2023-06-10T08:40:23;29.70;61.00
31263;DHT22;17892;52.080;9.006;2023-06-10T08:42:54;29.80;61.10
31263;DHT22;17892;52.080;9.006;2023-06-10T08:45:36;30.00;61.20
31263;DHT22;17892;52.080;9.006;2023-06-10T08:48:05;30.10;60.60
31263;DHT22;17892;52.080;9.006;2023-06-10T08:50:36;30.30;60.50
31263;DHT22;17892;52.080;9.006;2023-06-10T08:53:05;30.40;60.60
31263;DHT22;17892;52.080;9.006;2023-06-10T08:55:35;30.60;60.00
31263;DHT22;17892;52.080;9.006;2023-06-10T08:58:02;30.60;58.40
31263;DHT22;17892;52.080;9.006;2023-06-10T09:00:29;30.60;58.10
31263;DHT22;17892;52.080;9.006;2023-06-10T09:02:57;30.60;57.80
31263;DHT22;17892;52.080;9.006;2023-06-10T09:05:24;30.50;58.10
31263;DHT22;17892;52.080;9.006;2023-06-10T09:07:52;30.60;58.90
31263;DHT22;17892;52.080;9.006;2023-06-10T09:10:18;30.70;59.00
31263;DHT22;17892;52.080;9.006;2023-06-10T09:12:44;30.80;58.30
31263;DHT22;17892;52.080;9.006;2023-06-10T09:15:10;30.90;57.90
31263;DHT22;17892;52.080;9.006;2023-06-10T09:17:38;31.00;58.10
31263;DHT22;17892;52.080;9.006;2023-06-10T09:20:08;31.10;58.20
31263;DHT22;17892;52.080;9.006;2023-06-10T09:22:34;31.20;58.20
31263;DHT22;17892;52.080;9.006;2023-06-10T09:27:47;31.50;58.20
31263;DHT22;17892;52.080;9.006;2023-06-10T09:30:28;31.70;57.40
31263;DHT22;17892;52.080;9.006;2023-06-10T09:33:01;31.90;57.80
31263;DHT22;17892;52.080;9.006;2023-06-10T09:35:30;32.10;57.90
31263;DHT22;17892;52.080;9.006;2023-06-10T09:37:58;32.40;58.40
31263;DHT22;17892;52.080;9.006;2023-06-10T09:40:25;32.60;57.80
31263;DHT22;17892;52.080;9.006;2023-06-10T09:42:56;32.80;57.00
31263;DHT22;17892;52.080;9.006;2023-06-10T09:45:23;33.00;55.70
31263;DHT22;17892;52.080;9.006;2023-06-10T09:47:51;33.10;55.30
31263;DHT22;17892;52.080;9.006;2023-06-10T09:50:18;33.20;55.10
31263;DHT22;17892;52.080;9.006;2023-06-10T09:52:45;33.20;54.70
31263;DHT22;17892;52.080;9.006;2023-06-10T09:55:11;33.20;54.00
31263;DHT22;17892;52.080;9.006;2023-06-10T09:57:37;33.30;55.00
31263;DHT22;17892;52.080;9.006;2023-06-10T10:00:05;33.30;53.40
31263;DHT22;17892;52.080;9.006;2023-06-10T10:02:47;33.40;53.10
31263;DHT22;17892;52.080;9.006;2023-06-10T10:05:18;33.40;51.80
31263;DHT22;17892;52.080;9.006;2023-06-10T10:07:46;33.40;51.80
31263;DHT22;17892;52.080;9.006;2023-06-10T10:10:13;33.40;51.70
31263;DHT22;17892;52.080;9.006;2023-06-10T10:12:41;33.40;51.10
31263;DHT22;17892;52.080;9.006;2023-06-10T10:15:08;33.40;49.70
31263;DHT22;17892;52.080;9.006;2023-06-10T10:18:00;33.20;49.10
31263;DHT22;17892;52.080;9.006;2023-06-10T10:20:31;33.20;48.80
31263;DHT22;17892;52.080;9.006;2023-06-10T10:23:01;33.10;50.70
31263;DHT22;17892;52.080;9.006;2023-06-10T10:25:32;33.20;51.30
31263;DHT22;17892;52.080;9.006;2023-06-10T10:28:12;33.20;51.30
31263;DHT22;17892;52.080;9.006;2023-06-10T10:30:40;33.30;51.70
31263;DHT22;17892;52.080;9.006;2023-06-10T10:33:20;33.40;52.10
31263;DHT22;17892;52.080;9.006;2023-06-10T10:35:49;33.50;51.70
31263;DHT22;17892;52.080;9.006;2023-06-10T10:38:15;33.50;51.20
31263;DHT22;17892;52.080;9.006;2023-06-10T10:40:42;33.50;50.70
31263;DHT22;17892;52.080;9.006;2023-06-10T10:43:10;33.40;48.70
31263;DHT22;17892;52.080;9.006;2023-06-10T10:45:36;33.30;49.90
31263;DHT22;17892;52.080;9.006;2023-06-10T10:48:06;33.20;50.20
31263;DHT22;17892;52.080;9.006;2023-06-10T10:50:37;33.10;50.10
31263;DHT22;17892;52.080;9.006;2023-06-10T10:53:04;33.00;50.20
31263;DHT22;17892;52.080;9.006;2023-06-10T10:55:31;33.00;50.70
31263;DHT22;17892;52.080;9.006;2023-06-10T10:58:07;33.00;51.40
31263;DHT22;17892;52.080;9.006;2023-06-10T11:00:36;33.00;49.10
31263;DHT22;17892;52.080;9.006;2023-06-10T11:05:48;33.00;48.20
31263;DHT22;17892;52.080;9.006;2023-06-10T11:09:00;32.90;46.70
31263;DHT22;17892;52.080;9.006;2023-06-10T11:11:23;32.90;48.50
31263;DHT22;17892;52.080;9.006;2023-06-10T11:16:39;32.80;44.70
31263;DHT22;17892;52.080;9.006;2023-06-10T11:19:06;32.80;46.30
31263;DHT22;17892;52.080;9.006;2023-06-10T11:21:56;32.80;46.30
31263;DHT22;17892;52.080;9.006;2023-06-10T11:24:24;32.70;46.20
31263;DHT22;17892;52.080;9.006;2023-06-10T11:26:51;32.60;46.40
31263;DHT22;17892;52.080;9.006;2023-06-10T11:29:17;32.70;46.10
31263;DHT22;17892;52.080;9.006;2023-06-10T11:31:45;32.70;46.50
31263;DHT22;17892;52.080;9.006;2023-06-10T11:34:15;32.70;45.60
31263;DHT22;17892;52.080;9.006;2023-06-10T11:36:49;32.70;45.20
31263;DHT22;17892;52.080;9.006;2023-06-10T11:39:14;32.70;46.10
31263;DHT22;17892;52.080;9.006;2023-06-10T11:41:41;32.70;46.60
31263;DHT22;17892;52.080;9.006;2023-06-10T11:44:11;32.80;46.50
31263;DHT22;17892;52.080;9.006;2023-06-10T11:46:38;32.80;44.90
31263;DHT22;17892;52.080;9.006;2023-06-10T11:49:05;32.80;45.50
31263;DHT22;17892;52.080;9.006;2023-06-10T11:51:36;32.80;45.90
31263;DHT22;17892;52.080;9.006;2023-06-10T11:54:04;32.80;46.50
31263;DHT22;17892;52.080;9.006;2023-06-10T11:56:31;32.90;47.20
31263;DHT22;17892;52.080;9.006;2023-06-10T11:59:05;32.90;47.40
31263;DHT22;17892;52.080;9.006;2023-06-10T12:01:34;33.00;47.00
31263;DHT22;17892;52.080;9.006;2023-06-10T12:04:13;33.00;46.70
31263;DHT22;17892;52.080;9.006;2023-06-10T12:06:42;33.10;46.60
31263;DHT22;17892;52.080;9.006;2023-06-10T12:09:26;33.10;47.10
31263;DHT22;17892;52.080;9.006;2023-06-10T12:12:03;33.00;47.10
31263;DHT22;17892;52.080;9.006;2023-06-10T12:17:35;33.00;47.60
31263;DHT22;17892;52.080;9.006;2023-06-10T12:20:07;33.00;48.00
31263;DHT22;17892;52.080;9.006;2023-06-10T12:22:40;33.20;48.00
31263;DHT22;17892;52.080;9.006;2023-06-10T12:25:08;33.30;47.20
31263;DHT22;17892;52.080;9.006;2023-06-10T12:27:35;33.20;47.20
31263;DHT22;17892;52.080;9.006;2023-06-10T12:30:04;33.30;48.00
31263;DHT22;17892;52.080;9.006;2023-06-10T12:32:50;33.30;47.90
31263;DHT22;17892;52.080;9.006;2023-06-10T12:35:22;33.40;48.40
31263;DHT22;17892;52.080;9.006;2023-06-10T12:38:00;33.50;48.50
31263;DHT22;17892;52.080;9.006;2023-06-10T12:40:36;33.60;47.90
31263;DHT22;17892;52.080;9.006;2023-06-10T12:43:03;33.80;48.50
31263;DHT22;17892;52.080;9.006;2023-06-10T12:45:39;33.90;48.20
31263;DHT22;17892;52.080;9.006;2023-06-10T12:48:09;34.00;47.50
31263;DHT22;17892;52.080;9.006;2023-06-10T12:50:42;34.10;47.90
31263;DHT22;17892;52.080;9.006;2023-06-10T12:53:08;34.10;48.20
31263;DHT22;17892;52.080;9.006;2023-06-10T12:55:37;34.20;48.50
31263;DHT22;17892;52.080;9.006;2023-06-10T12:58:03;34.30;49.10
31263;DHT22;17892;52.080;9.006;2023-06-10T13:00:29;34.40;48.10
31263;DHT22;17892;52.080;9.006;2023-06-10T13:03:00;34.60;48.50
31263;DHT22;17892;52.080;9.006;2023-06-10T13:05:27;34.70;47.90
31263;DHT22;17892;52.080;9.006;2023-06-10T13:07:54;34.70;46.90
31263;DHT22;17892;52.080;9.006;2023-06-10T13:10:20;34.60;46.70
31263;DHT22;17892;52.080;9.006;2023-06-10T13:12:47;34.60;47.50
31263;DHT22;17892;52.080;9.006;2023-06-10T13:15:13;34.40;46.90
31263;DHT22;17892;52.080;9.006;2023-06-10T13:17:41;34.30;47.10
31263;DHT22;17892;52.080;9.006;2023-06-10T13:20:08;34.10;47.30
31263;DHT22;17892;52.080;9.006;2023-06-10T13:22:34;33.90;46.90
31263;DHT22;17892;52.080;9.006;2023-06-10T13:25:05;33.60;47.80
31263;DHT22;17892;52.080;9.006;2023-06-10T13:27:35;33.40;48.10
31263;DHT22;17892;52.080;9.006;2023-06-10T13:30:03;33.20;48.40
31263;DHT22;17892;52.080;9.006;2023-06-10T13:32:30;33.00;49.30
31263;DHT22;17892;52.080;9.006;2023-06-10T13:34:56;32.90;49.50
31263;DHT22;17892;52.080;9.006;2023-06-10T13:37:22;32.80;49.70
31263;DHT22;17892;52.080;9.006;2023-06-10T13:39:48;32.80;50.20
31263;DHT22;17892;52.080;9.006;2023-06-10T13:42:17;32.90;50.10
31263;DHT22;17892;52.080;9.006;2023-06-10T13:44:43;32.80;50.30
31263;DHT22;17892;52.080;9.006;2023-06-10T13:47:08;32.80;50.00
31263;DHT22;17892;52.080;9.006;2023-06-10T13:49:34;32.70;50.10
31263;DHT22;17892;52.080;9.006;2023-06-10T13:52:01;32.80;50.40
31263;DHT22;17892;52.080;9.006;2023-06-10T13:54:27;32.70;50.30
31263;DHT22;17892;52.080;9.006;2023-06-10T13:56:53;32.60;50.80
31263;DHT22;17892;52.080;9.006;2023-06-10T13:59:19;32.50;50.50
31263;DHT22;17892;52.080;9.006;2023-06-10T14:01:46;32.50;50.60
31263;DHT22;17892;52.080;9.006;2023-06-10T14:04:12;32.40;51.40
31263;DHT22;17892;52.080;9.006;2023-06-10T14:06:37;32.40;51.70
31263;DHT22;17892;52.080;9.006;2023-06-10T14:09:03;32.50;52.00
31263;DHT22;17892;52.080;9.006;2023-06-10T14:11:29;32.40;51.50
31263;DHT22;17892;52.080;9.006;2023-06-10T14:13:55;32.50;51.80
31263;DHT22;17892;52.080;9.006;2023-06-10T14:16:26;32.50;52.00
31263;DHT22;17892;52.080;9.006;2023-06-10T14:18:51;32.60;52.60
31263;DHT22;17892;52.080;9.006;2023-06-10T14:21:17;32.70;52.40
31263;DHT22;17892;52.080;9.006;2023-06-10T14:23:43;32.80;52.70
31263;DHT22;17892;52.080;9.006;2023-06-10T14:26:09;33.00;51.80
31263;DHT22;17892;52.080;9.006;2023-06-10T14:28:35;33.10;51.20
31263;DHT22;17892;52.080;9.006;2023-06-10T14:31:01;33.20;50.70
31263;DHT22;17892;52.080;9.006;2023-06-10T14:33:28;33.40;50.70
31263;DHT22;17892;52.080;9.006;2023-06-10T14:35:54;33.50;50.70
31263;DHT22;17892;52.080;9.006;2023-06-10T14:38:20;33.70;50.90
31263;DHT22;17892;52.080;9.006;2023-06-10T14:40:45;33.70;50.30
31263;DHT22;17892;52.080;9.006;2023-06-10T14:43:11;33.80;50.10
31263;DHT22;17892;52.080;9.006;2023-06-10T14:45:38;33.90;50.20
31263;DHT22;17892;52.080;9.006;2023-06-10T14:48:06;34.00;50.10
31263;DHT22;17892;52.080;9.006;2023-06-10T14:50:32;34.00;49.80
31263;DHT22;17892;52.080;9.006;2023-06-10T14:53:00;34.10;49.00
31263;DHT22;17892;52.080;9.006;2023-06-10T14:55:26;34.10;48.50
31263;DHT22;17892;52.080;9.006;2023-06-10T14:57:51;34.20;48.40
31263;DHT22;17892;52.080;9.006;2023-06-10T15:00:17;34.20;48.70
31263;DHT22;17892;52.080;9.006;2023-06-10T15:02:46;34.20;48.40
31263;DHT22;17892;52.080;9.006;2023-06-10T15:05:15;34.20;47.90
31263;DHT22;17892;52.080;9.006;2023-06-10T15:07:41;34.10;47.70
31263;DHT22;17892;52.080;9.006;2023-06-10T15:10:07;33.80;46.90
31263;DHT22;17892;52.080;9.006;2023-06-10T15:12:34;33.50;46.80
31263;DHT22;17892;52.080;9.006;2023-06-10T15:15:00;33.50;47.30
31263;DHT22;17892;52.080;9.006;2023-06-10T15:17:26;33.30;47.10
31263;DHT22;17892;52.080;9.006;2023-06-10T15:19:51;33.20;47.30
31263;DHT22;17892;52.080;9.006;2023-06-10T15:22:17;33.10;47.60
31263;DHT22;17892;52.080;9.006;2023-06-10T15:24:43;33.10;47.90
31263;DHT22;17892;52.080;9.006;2023-06-10T15:27:09;33.10;48.50
31263;DHT22;17892;52.080;9.006;2023-06-10T15:29:35;33.20;48.50
31263;DHT22;17892;52.080;9.006;2023-06-10T15:32:01;33.20;48.10
31263;DHT22;17892;52.080;9.006;2023-06-10T15:34:26;33.30;48.10
31263;DHT22;17892;52.080;9.006;2023-06-10T15:36:52;33.40;48.20
31263;DHT22;17892;52.080;9.006;2023-06-10T15:39:18;33.40;47.60
31263;DHT22;17892;52.080;9.006;2023-06-10T15:41:44;33.40;47.60
31263;DHT22;17892;52.080;9.006;2023-06-10T15:44:10;33.40;47.70
31263;DHT22;17892;52.080;9.006;2023-06-10T15:46:36;33.40;46.80